sensor_id;sensor_type;location;lat;lon;timestamp;P1;durP1;ratioP1;P2;durP2;ratioP2
5827;SDS011;42583;50.240;8.444;2022-10-16T00:14:26;68.22;;;4.88;;
5827;SDS011;42583;50.240;8.444;2022-10-16T00:29:27;6.50;;;3.70;;
5827;SDS011;42583;50.240;8.444;2022-10-16T00:44:47;18.45;;;4.68;;
5827;SDS011;42583;50.240;8.444;2022-10-16T00:59:51;5.10;;;2.75;;
5827;SDS011;42583;50.240;8.444;2022-10-16T01:14:54;4.85;;;3.25;;
5827;SDS011;42583;50.240;8.444;2022-10-16T01:30:10;4.03;;;3.00;;
5827;SDS011;42583;50.240;8.444;2022-10-16T01:45:15;4.03;;;2.70;;
5827;SDS011;42583;50.240;8.444;2022-10-16T02:00:19;4.25;;;3.20;;
5827;SDS011;42583;50.240;8.444;2022-10-16T02:15:21;3.90;;;2.47;;
5827;SDS011;42583;50.240;8.444;2022-10-16T02:45:37;3.53;;;2.70;;
5827;SDS011;42583;50.240;8.444;2022-10-16T03:00:37;3.70;;;1.90;;
5827;SDS011;42583;50.240;8.444;2022-10-16T03:15:38;1.10;;;0.80;;
5827;SDS011;42583;50.240;8.444;2022-10-16T03:30:38;1.50;;;1.00;;
5827;SDS011;42583;50.240;8.444;2022-10-16T03:45:39;3.63;;;2.17;;
5827;SDS011;42583;50.240;8.444;2022-10-16T04:00:41;371.10;;;9.63;;
5827;SDS011;42583;50.240;8.444;2022-10-16T04:15:42;2.97;;;1.70;;
5827;SDS011;42583;50.240;8.444;2022-10-16T04:30:44;3.05;;;1.63;;
5827;SDS011;42583;50.240;8.444;2022-10-16T04:45:44;8.32;;;2.53;;
5827;SDS011;42583;50.240;8.444;2022-10-16T05:00:45;4.68;;;3.45;;
5827;SDS011;42583;50.240;8.444;2022-10-16T05:15:47;6.25;;;3.28;;
5827;SDS011;42583;50.240;8.444;2022-10-16T05:30:48;7.43;;;3.80;;
5827;SDS011;42583;50.240;8.444;2022-10-16T05:45:59;3.97;;;2.75;;
5827;SDS011;42583;50.240;8.444;2022-10-16T06:01:05;4.97;;;3.20;;
5827;SDS011;42583;50.240;8.444;2022-10-16T06:16:09;157.48;;;6.32;;
5827;SDS011;42583;50.240;8.444;2022-10-16T06:31:11;464.45;;;11.18;;
5827;SDS011;42583;50.240;8.444;2022-10-16T06:46:13;469.48;;;9.52;;
5827;SDS011;42583;50.240;8.444;2022-10-16T07:01:16;609.38;;;14.25;;
5827;SDS011;42583;50.240;8.444;2022-10-16T07:16:19;555.05;;;13.05;;
5827;SDS011;42583;50.240;8.444;2022-10-16T07:31:20;649.50;;;14.68;;
5827;SDS011;42583;50.240;8.444;2022-10-16T07:46:22;683.97;;;18.42;;
5827;SDS011;42583;50.240;8.444;2022-10-16T08:01:23;872.95;;;18.90;;
5827;SDS011;42583;50.240;8.444;2022-10-16T08:16:23;651.08;;;12.70;;
5827;SDS011;42583;50.240;8.444;2022-10-16T08:31:24;586.33;;;10.90;;
5827;SDS011;42583;50.240;8.444;2022-10-16T08:46:48;724.67;;;14.10;;
5827;SDS011;42583;50.240;8.444;2022-10-16T09:02:32;716.75;;;11.52;;
5827;SDS011;42583;50.240;8.444;2022-10-16T09:17:43;553.03;;;9.75;;
5827;SDS011;42583;50.240;8.444;2022-10-16T09:33:03;608.33;;;9.63;;
5827;SDS011;42583;50.240;8.444;2022-10-16T09:48:12;515.53;;;11.07;;
5827;SDS011;42583;50.240;8.444;2022-10-16T10:03:34;329.05;;;9.52;;
5827;SDS011;42583;50.240;8.444;2022-10-16T10:18:40;49.95;;;5.68;;
5827;SDS011;42583;50.240;8.444;2022-10-16T11:04:11;4.53;;;3.10;;
5827;SDS011;42583;50.240;8.444;2022-10-16T11:49:32;2.08;;;1.70;;
5827;SDS011;42583;50.240;8.444;2022-10-16T12:19:39;2.33;;;1.40;;
5827;SDS011;42583;50.240;8.444;2022-10-16T12:34:41;3.17;;;1.90;;
5827;SDS011;42583;50.240;8.444;2022-10-16T12:49:48;1.50;;;0.85;;
5827;SDS011;42583;50.240;8.444;2022-10-16T13:20:27;5.38;;;1.30;;
5827;SDS011;42583;50.240;8.444;2022-10-16T13:35:31;1.17;;;1.00;;
5827;SDS011;42583;50.240;8.444;2022-10-16T13:50:34;3.75;;;1.10;;
5827;SDS011;42583;50.240;8.444;2022-10-16T14:05:34;2.53;;;1.20;;
5827;SDS011;42583;50.240;8.444;2022-10-16T14:20:35;1.92;;;0.90;;
5827;SDS011;42583;50.240;8.444;2022-10-16T14:35:38;8.75;;;3.65;;
5827;SDS011;42583;50.240;8.444;2022-10-16T14:50:40;1.20;;;1.10;;
5827;SDS011;42583;50.240;8.444;2022-10-16T15:05:40;1.92;;;1.30;;
5827;SDS011;42583;50.240;8.444;2022-10-16T15:20:41;3.25;;;1.50;;
5827;SDS011;42583;50.240;8.444;2022-10-16T15:35:42;3.45;;;2.10;;
5827;SDS011;42583;50.240;8.444;2022-10-16T15:50:42;6.10;;;2.80;;
5827;SDS011;42583;50.240;8.444;2022-10-16T16:05:43;3.72;;;2.70;;
5827;SDS011;42583;50.240;8.444;2022-10-16T16:20:43;8.05;;;4.80;;
5827;SDS011;42583;50.240;8.444;2022-10-16T16:35:44;9.15;;;6.28;;
5827;SDS011;42583;50.240;8.444;2022-10-16T16:50:44;9.57;;;7.05;;
5827;SDS011;42583;50.240;8.444;2022-10-16T17:05:54;10.73;;;5.85;;
5827;SDS011;42583;50.240;8.444;2022-10-16T17:21:06;8.85;;;6.20;;
5827;SDS011;42583;50.240;8.444;2022-10-16T17:36:07;8.23;;;5.07;;
5827;SDS011;42583;50.240;8.444;2022-10-16T17:51:10;6.70;;;4.20;;
5827;SDS011;42583;50.240;8.444;2022-10-16T18:06:12;6.95;;;3.63;;
5827;SDS011;42583;50.240;8.444;2022-10-16T18:21:14;10.82;;;3.70;;
5827;SDS011;42583;50.240;8.444;2022-10-16T18:36:23;9.05;;;4.60;;
5827;SDS011;42583;50.240;8.444;2022-10-16T18:51:29;6.88;;;4.45;;
5827;SDS011;42583;50.240;8.444;2022-10-16T19:06:35;7.78;;;4.10;;
5827;SDS011;42583;50.240;8.444;2022-10-16T19:21:37;6.53;;;3.20;;
5827;SDS011;42583;50.240;8.444;2022-10-16T19:36:41;10.17;;;3.53;;
5827;SDS011;42583;50.240;8.444;2022-10-16T19:51:41;4.63;;;2.90;;
5827;SDS011;42583;50.240;8.444;2022-10-16T20:06:45;7.23;;;2.37;;
5827;SDS011;42583;50.240;8.444;2022-10-16T20:21:45;6.05;;;2.50;;
5827;SDS011;42583;50.240;8.444;2022-10-16T20:36:46;5.75;;;2.10;;
5827;SDS011;42583;50.240;8.444;2022-10-16T20:51:49;7.33;;;2.60;;
5827;SDS011;42583;50.240;8.444;2022-10-16T21:06:50;4.93;;;2.00;;
5827;SDS011;42583;50.240;8.444;2022-10-16T21:21:51;6.70;;;1.80;;
5827;SDS011;42583;50.240;8.444;2022-10-16T21:36:51;3.55;;;1.70;;
5827;SDS011;42583;50.240;8.444;2022-10-16T21:51:52;2.83;;;1.75;;
5827;SDS011;42583;50.240;8.444;2022-10-16T22:06:52;2.88;;;1.90;;
5827;SDS011;42583;50.240;8.444;2022-10-16T22:21:53;4.35;;;2.10;;
5827;SDS011;42583;50.240;8.444;2022-10-16T22:36:56;6.83;;;2.03;;
5827;SDS011;42583;50.240;8.444;2022-10-16T22:51:56;3.15;;;2.10;;
5827;SDS011;42583;50.240;8.444;2022-10-16T23:06:57;6.63;;;2.05;;
5827;SDS011;42583;50.240;8.444;2022-10-16T23:21:59;4.28;;;2.13;;
5827;SDS011;42583;50.240;8.444;2022-10-16T23:36:59;5.65;;;2.30;;
5827;SDS011;42583;50.240;8.444;2022-10-16T23:52:02;6.00;;;2.03;;
